Time;durP1;ratioP1;P1;durP2;ratioP2;P2;SDS_P1;SDS_P2;PMS_P1;PMS_P2;Temp;Humidity;BMP_temperature;BMP_pressure;BME280_temperature;BME280_humidity;BME280_pressure;Samples;Min_cycle;Max_cycle;Signal;HPM_P1;HPM_P2
2022/12/19 00:00:02;;;;;;;12.60;6.22;;;;;;;;;;5004222;28;94390;-67
2022/12/19 00:02:37;;;;;;;13.48;6.30;;;;;;;;;;5000331;28;92471;-66
2022/12/19 00:05:04;;;;;;;13.75;6.55;;;;;;;;;;5003447;28;92144;-63
2022/12/19 00:07:30;;;;;;;13.05;6.78;;;;;;;;;;5002910;28;93275;-66
2022/12/19 00:09:57;;;;;;;15.02;6.50;;;;;;;;;;5003308;28;92225;-66
2022/12/19 00:12:23;;;;;;;13.73;6.63;;;;;;;;;;5004012;28;92559;-66
2022/12/19 00:14:49;;;;;;;15.50;6.38;;;;;;;;;;5004389;28;92808;-66
2022/12/19 00:17:16;;;;;;;12.80;6.40;;;;;;;;;;5004566;28;91867;-66
2022/12/19 00:19:42;;;;;;;13.40;6.70;;;;;;;;;;5004181;28;92452;-66
2022/12/19 00:22:08;;;;;;;14.55;6.40;;;;;;;;;;5006410;28;92540;-66
2022/12/19 00:24:36;;;;;;;14.77;6.60;;;;;;;;;;5002580;28;94494;-67
2022/12/19 00:27:03;;;;;;;12.40;6.43;;;;;;;;;;5003753;28;95963;-66
2022/12/19 00:29:29;;;;;;;13.07;6.75;;;;;;;;;;5002636;28;92810;-67
2022/12/19 00:31:56;;;;;;;11.82;5.68;;;;;;;;;;5002408;28;92261;-66
2022/12/19 00:34:23;;;;;;;16.02;7.18;;;;;;;;;;5003705;28;92344;-67
2022/12/19 00:36:49;;;;;;;13.90;7.18;;;;;;;;;;5001298;28;92599;-67
2022/12/19 00:39:16;;;;;;;13.70;6.80;;;;;;;;;;5004329;28;92188;-66
2022/12/19 00:41:44;;;;;;;13.23;6.45;;;;;;;;;;5006081;28;94840;-66
2022/12/19 00:44:11;;;;;;;12.30;6.70;;;;;;;;;;5003948;28;92929;-66
2022/12/19 00:46:39;;;;;;;13.20;6.18;;;;;;;;;;5003132;28;92178;-66
2022/12/19 00:49:06;;;;;;;11.95;6.30;;;;;;;;;;5001493;28;96027;-66
2022/12/19 00:51:34;;;;;;;13.70;7.28;;;;;;;;;;4996139;28;92529;-67
2022/12/19 00:54:02;;;;;;;12.07;6.40;;;;;;;;;;5003857;28;92312;-66
2022/12/19 00:56:33;;;;;;;12.88;6.45;;;;;;;;;;5003965;28;92580;-66
2022/12/19 00:59:05;;;;;;;12.70;6.60;;;;;;;;;;5002449;28;92167;-66
2022/12/19 01:01:33;;;;;;;12.70;6.97;;;;;;;;;;5004002;28;93368;-66
2022/12/19 01:04:00;;;;;;;11.95;6.88;;;;;;;;;;5005807;28;92749;-66
2022/12/19 01:06:47;;;;;;;12.00;6.53;;;;;;;;;;5004003;28;93337;-66
2022/12/19 01:09:13;;;;;;;12.68;6.78;;;;;;;;;;5003144;28;92095;-66
2022/12/19 01:14:25;;;;;;;12.55;6.57;;;;;;;;;;5002053;28;95125;-65
2022/12/19 01:16:52;;;;;;;12.55;6.80;;;;;;;;;;5003609;28;92876;-65
2022/12/19 01:19:18;;;;;;;13.93;7.07;;;;;;;;;;5002851;28;92348;-64
2022/12/19 01:21:45;;;;;;;12.52;7.10;;;;;;;;;;5003763;28;92290;-66
2022/12/19 01:24:11;;;;;;;12.98;6.97;;;;;;;;;;5002423;28;92443;-65
2022/12/19 01:26:40;;;;;;;11.57;6.60;;;;;;;;;;5006298;28;92029;-65
2022/12/19 01:29:06;;;;;;;11.93;6.53;;;;;;;;;;5003206;28;93270;-65
2022/12/19 01:31:33;;;;;;;10.80;6.00;;;;;;;;;;5002239;28;92751;-66
2022/12/19 01:34:01;;;;;;;12.50;6.93;;;;;;;;;;4982114;28;93676;-66
2022/12/19 01:36:28;;;;;;;12.90;6.60;;;;;;;;;;5000313;28;92523;-66
2022/12/19 01:38:55;;;;;;;11.73;6.40;;;;;;;;;;5000146;28;95282;-66
2022/12/19 01:41:21;;;;;;;13.10;5.93;;;;;;;;;;5001701;28;96799;-66
2022/12/19 01:44:02;;;;;;;11.98;6.50;;;;;;;;;;5001519;28;94507;-66
2022/12/19 01:46:33;;;;;;;12.07;6.65;;;;;;;;;;4991224;28;92470;-66
2022/12/19 01:49:01;;;;;;;11.35;6.00;;;;;;;;;;5004525;28;92783;-66
2022/12/19 01:51:35;;;;;;;12.85;6.93;;;;;;;;;;5001876;28;92690;-66
2022/12/19 01:54:03;;;;;;;11.77;6.13;;;;;;;;;;5001509;28;94257;-66
2022/12/19 01:56:34;;;;;;;12.43;6.65;;;;;;;;;;5003456;28;92685;-66
2022/12/19 01:59:03;;;;;;;11.60;6.53;;;;;;;;;;5003010;28;92138;-67
2022/12/19 02:01:36;;;;;;;11.45;5.47;;;;;;;;;;4996091;28;92337;-66
2022/12/19 02:04:17;;;;;;;11.43;6.32;;;;;;;;;;4999137;28;95855;-66
2022/12/19 02:06:44;;;;;;;11.50;6.20;;;;;;;;;;5001398;28;92443;-66
2022/12/19 02:09:12;;;;;;;12.82;6.60;;;;;;;;;;5001143;28;94972;-67
2022/12/19 02:11:38;;;;;;;11.60;6.28;;;;;;;;;;5004139;28;94969;-66
2022/12/19 02:14:05;;;;;;;12.95;6.28;;;;;;;;;;5001005;28;92894;-66
2022/12/19 02:16:53;;;;;;;11.52;5.75;;;;;;;;;;5002551;28;92661;-67
2022/12/19 02:19:29;;;;;;;12.77;6.05;;;;;;;;;;5001014;28;92214;-66
2022/12/19 02:22:02;;;;;;;11.85;5.70;;;;;;;;;;5002820;28;93446;-66
2022/12/19 02:24:32;;;;;;;10.77;5.63;;;;;;;;;;5000981;28;95152;-66
2022/12/19 02:27:10;;;;;;;12.02;6.03;;;;;;;;;;5002562;28;92471;-66
2022/12/19 02:29:36;;;;;;;12.45;5.97;;;;;;;;;;4986241;28;94932;-65
2022/12/19 02:32:04;;;;;;;;;;;;;;;;;;5002744;28;92556;-66
2022/12/19 02:34:33;;;;;;;12.23;6.22;;;;;;;;;;5005636;28;92393;-66
2022/12/19 02:37:05;;;;;;;12.77;6.28;;;;;;;;;;5000724;28;93070;-66
2022/12/19 02:39:50;;;;;;;11.85;6.45;;;;;;;;;;5001006;28;92347;-65
2022/12/19 02:42:21;;;;;;;12.05;6.05;;;;;;;;;;4997388;28;92178;-66
2022/12/19 02:44:49;;;;;;;12.60;5.88;;;;;;;;;;4996483;28;92054;-65
2022/12/19 02:47:17;;;;;;;14.73;6.25;;;;;;;;;;5001962;28;91773;-65
2022/12/19 02:49:44;;;;;;;11.55;5.65;;;;;;;;;;5000831;28;92475;-66
2022/12/19 02:52:31;;;;;;;12.25;6.00;;;;;;;;;;5000387;28;92238;-65
2022/12/19 02:55:00;;;;;;;12.50;5.90;;;;;;;;;;5002304;28;94817;-65
2022/12/19 02:57:26;;;;;;;12.43;5.90;;;;;;;;;;4999132;28;94771;-65
2022/12/19 02:59:59;;;;;;;12.32;6.15;;;;;;;;;;5002021;28;92067;-66
2022/12/19 03:02:40;;;;;;;13.82;5.95;;;;;;;;;;5000752;28;92596;-66
2022/12/19 03:05:14;;;;;;;12.43;6.25;;;;;;;;;;4993165;28;92597;-66
2022/12/19 03:07:48;;;;;;;12.65;5.82;;;;;;;;;;5000761;28;92022;-66
2022/12/19 03:10:34;;;;;;;12.85;6.03;;;;;;;;;;4998564;28;92360;-66
2022/12/19 03:13:01;;;;;;;;;;;;;;;;;;4987826;28;92214;-66
2022/12/19 03:15:27;;;;;;;11.32;5.78;;;;;;;;;;5002443;28;107979;-67
2022/12/19 03:17:58;;;;;;;11.65;6.18;;;;;;;;;;5003551;28;94760;-66
2022/12/19 03:20:28;;;;;;;11.98;6.32;;;;;;;;;;4999812;28;94915;-66
2022/12/19 03:22:54;;;;;;;12.38;6.40;;;;;;;;;;5001793;28;94650;-66
2022/12/19 03:25:21;;;;;;;11.80;5.82;;;;;;;;;;4998974;28;93521;-67
2022/12/19 03:27:49;;;;;;;11.80;6.50;;;;;;;;;;5002152;28;92544;-66
2022/12/19 03:30:15;;;;;;;;;;;;;;;;;;5001842;28;93335;-66
2022/12/19 03:32:43;;;;;;;11.57;5.97;;;;;;;;;;5001123;28;121393;-67
2022/12/19 03:35:12;;;;;;;11.82;5.53;;;;;;;;;;5001218;28;91963;-66
2022/12/19 03:37:40;;;;;;;13.18;5.63;;;;;;;;;;5002135;28;91876;-66
2022/12/19 03:40:08;;;;;;;12.48;5.65;;;;;;;;;;4997486;28;93295;-66
2022/12/19 03:45:29;;;;;;;12.27;5.60;;;;;;;;;;4999209;28;94938;-66
2022/12/19 03:47:56;;;;;;;;;;;;;;;;;;5001981;28;92393;-67
2022/12/19 03:50:23;;;;;;;11.15;5.28;;;;;;;;;;5001790;28;121366;-66
2022/12/19 03:53:16;;;;;;;10.77;5.97;;;;;;;;;;4994717;28;92804;-66
2022/12/19 03:55:46;;;;;;;12.00;5.82;;;;;;;;;;5000059;28;92884;-66
2022/12/19 03:58:15;;;;;;;11.02;5.20;;;;;;;;;;5001392;28;92495;-66
2022/12/19 04:00:46;;;;;;;10.68;4.88;;;;;;;;;;4999496;28;93204;-66
2022/12/19 04:03:14;;;;;;;10.00;5.47;;;;;;;;;;5004842;28;91313;-67
2022/12/19 04:05:42;;;;;;;12.27;5.70;;;;;;;;;;5000689;28;93074;-67
2022/12/19 04:08:09;;;;;;;10.40;5.40;;;;;;;;;;4994194;28;92343;-66
2022/12/19 04:10:42;;;;;;;12.18;6.15;;;;;;;;;;4999397;28;94783;-66
2022/12/19 04:13:11;;;;;;;11.30;5.80;;;;;;;;;;5001094;28;93978;-66
2022/12/19 04:15:37;;;;;;;11.27;5.65;;;;;;;;;;5000745;28;92503;-66
2022/12/19 04:18:05;;;;;;;10.38;4.78;;;;;;;;;;5001250;28;92765;-66
2022/12/19 04:20:35;;;;;;;9.88;5.40;;;;;;;;;;4997196;28;92764;-66
2022/12/19 04:23:12;;;;;;;11.43;5.40;;;;;;;;;;5003409;28;92299;-66
2022/12/19 04:25:41;;;;;;;9.90;4.70;;;;;;;;;;5007270;28;92595;-66
2022/12/19 04:28:13;;;;;;;10.98;5.78;;;;;;;;;;5005003;28;91688;-66
2022/12/19 04:30:41;;;;;;;9.73;5.55;;;;;;;;;;5004316;28;92364;-66
2022/12/19 04:33:08;;;;;;;9.55;4.90;;;;;;;;;;5003859;28;92355;-67
2022/12/19 04:35:35;;;;;;;10.05;5.20;;;;;;;;;;5002396;28;94439;-66
2022/12/19 04:38:01;;;;;;;10.10;5.20;;;;;;;;;;5004140;28;94197;-66
2022/12/19 04:40:28;;;;;;;9.88;5.10;;;;;;;;;;5003842;28;92544;-67
2022/12/19 04:42:54;;;;;;;11.18;5.45;;;;;;;;;;5002972;28;92204;-67
2022/12/19 04:45:20;;;;;;;11.32;5.50;;;;;;;;;;5003907;28;92464;-67
2022/12/19 04:47:47;;;;;;;10.43;5.00;;;;;;;;;;5006928;28;92796;-67
2022/12/19 04:50:13;;;;;;;9.90;4.63;;;;;;;;;;5003544;28;93473;-67
2022/12/19 04:52:40;;;;;;;10.25;4.93;;;;;;;;;;5004686;28;92547;-71
2022/12/19 04:55:06;;;;;;;9.20;4.32;;;;;;;;;;5003616;28;92429;-65
2022/12/19 04:57:33;;;;;;;9.70;5.00;;;;;;;;;;5004148;28;92911;-65
2022/12/19 04:59:59;;;;;;;9.50;4.47;;;;;;;;;;5002025;28;94960;-65
2022/12/19 05:02:26;;;;;;;10.10;4.85;;;;;;;;;;5003194;28;92381;-66
2022/12/19 05:04:52;;;;;;;11.05;4.63;;;;;;;;;;4997395;28;92325;-66
2022/12/19 05:07:19;;;;;;;9.35;4.80;;;;;;;;;;5005609;28;93208;-66
2022/12/19 05:09:45;;;;;;;9.10;4.38;;;;;;;;;;5004003;28;92546;-66
2022/12/19 05:12:12;;;;;;;9.32;4.60;;;;;;;;;;5003465;28;92645;-67
2022/12/19 05:14:39;;;;;;;10.15;4.40;;;;;;;;;;5003614;28;92341;-66
2022/12/19 05:17:05;;;;;;;9.13;4.38;;;;;;;;;;5004080;28;92560;-67
2022/12/19 05:19:32;;;;;;;8.88;4.38;;;;;;;;;;5003464;28;92623;-66
2022/12/19 05:21:58;;;;;;;9.60;4.72;;;;;;;;;;5003406;28;92325;-66
2022/12/19 05:24:25;;;;;;;9.02;4.38;;;;;;;;;;5001901;28;94723;-66
2022/12/19 05:26:51;;;;;;;9.18;4.13;;;;;;;;;;5003111;28;93799;-66
2022/12/19 05:29:18;;;;;;;8.90;4.70;;;;;;;;;;5006697;28;92602;-67
2022/12/19 05:31:44;;;;;;;8.77;4.00;;;;;;;;;;5002720;28;93656;-66
2022/12/19 05:34:10;;;;;;;9.40;4.07;;;;;;;;;;5002768;28;92281;-67
2022/12/19 05:36:37;;;;;;;8.65;4.47;;;;;;;;;;5003131;28;92611;-67
2022/12/19 05:39:03;;;;;;;8.98;4.22;;;;;;;;;;5002897;28;93343;-67
2022/12/19 05:41:30;;;;;;;9.20;4.07;;;;;;;;;;5003594;28;91602;-66
2022/12/19 05:43:56;;;;;;;7.90;3.80;;;;;;;;;;5003045;28;92097;-66
2022/12/19 05:46:23;;;;;;;8.02;3.90;;;;;;;;;;5001892;28;92580;-66
2022/12/19 05:48:50;;;;;;;8.30;3.78;;;;;;;;;;5001422;28;94652;-67
2022/12/19 05:51:17;;;;;;;8.77;3.88;;;;;;;;;;5005852;28;94831;-67
2022/12/19 05:53:43;;;;;;;8.02;3.83;;;;;;;;;;5002956;28;92042;-66
2022/12/19 05:56:11;;;;;;;8.98;3.92;;;;;;;;;;5002988;28;93400;-67
2022/12/19 05:58:38;;;;;;;8.13;3.80;;;;;;;;;;5002547;28;92608;-67
2022/12/19 06:01:07;;;;;;;8.55;3.80;;;;;;;;;;5002869;28;92034;-67
2022/12/19 06:03:33;;;;;;;8.38;4.30;;;;;;;;;;5002625;28;92656;-66
2022/12/19 06:06:04;;;;;;;7.65;3.80;;;;;;;;;;5002715;28;91772;-66
2022/12/19 06:08:31;;;;;;;8.00;3.42;;;;;;;;;;5002841;28;92202;-65
2022/12/19 06:10:59;;;;;;;7.82;3.50;;;;;;;;;;5002715;28;92328;-66
2022/12/19 06:13:26;;;;;;;7.82;3.53;;;;;;;;;;5003828;28;95034;-67
2022/12/19 06:15:59;;;;;;;8.15;4.00;;;;;;;;;;5002436;28;94216;-67
2022/12/19 06:18:27;;;;;;;8.40;3.33;;;;;;;;;;5002294;28;93620;-66
2022/12/19 06:21:04;;;;;;;9.27;4.00;;;;;;;;;;5002341;28;92417;-66
2022/12/19 06:23:32;;;;;;;7.25;3.55;;;;;;;;;;5002645;28;92263;-66
2022/12/19 06:25:58;;;;;;;;;;;;;;;;;;5002663;28;93058;-66
2022/12/19 06:28:25;;;;;;;7.97;3.53;;;;;;;;;;5001071;28;117438;-67
2022/12/19 06:30:54;;;;;;;8.27;3.50;;;;;;;;;;5002795;28;91594;-67
2022/12/19 06:33:21;;;;;;;7.35;3.40;;;;;;;;;;5002394;28;92469;-67
2022/12/19 06:35:47;;;;;;;8.70;3.38;;;;;;;;;;5005370;28;92467;-66
2022/12/19 06:38:13;;;;;;;7.13;3.03;;;;;;;;;;5000688;28;95910;-67
2022/12/19 06:43:27;;;;;;;8.10;2.85;;;;;;;;;;5002368;28;92311;-67
2022/12/19 06:45:55;;;;;;;7.43;2.97;;;;;;;;;;5000956;28;92789;-66
2022/12/19 06:48:22;;;;;;;7.32;2.70;;;;;;;;;;5002243;28;92039;-67
2022/12/19 06:50:48;;;;;;;6.65;2.75;;;;;;;;;;5001946;28;92951;-67
2022/12/19 06:53:14;;;;;;;6.47;2.53;;;;;;;;;;5002234;28;92547;-68
2022/12/19 06:55:41;;;;;;;6.95;2.78;;;;;;;;;;4994066;28;91770;-67
2022/12/19 06:58:07;;;;;;;6.75;2.90;;;;;;;;;;4999723;28;92110;-67
2022/12/19 07:00:34;;;;;;;6.75;2.90;;;;;;;;;;5001919;28;92432;-67
2022/12/19 07:03:02;;;;;;;7.30;2.92;;;;;;;;;;5000560;28;94366;-66
2022/12/19 07:05:28;;;;;;;7.55;3.45;;;;;;;;;;4990464;28;92665;-66
2022/12/19 07:07:55;;;;;;;5.55;2.58;;;;;;;;;;5002258;28;92402;-67
2022/12/19 07:10:21;;;;;;;6.68;2.83;;;;;;;;;;4992840;28;92688;-66
2022/12/19 07:12:48;;;;;;;6.90;3.08;;;;;;;;;;5001810;28;92704;-66
2022/12/19 07:15:14;;;;;;;5.28;2.50;;;;;;;;;;5001283;28;92135;-66
2022/12/19 07:17:41;;;;;;;6.15;2.45;;;;;;;;;;5004880;28;92468;-66
2022/12/19 07:20:08;;;;;;;7.40;2.58;;;;;;;;;;5001741;28;91315;-67
2022/12/19 07:22:35;;;;;;;6.53;2.63;;;;;;;;;;5001891;28;91992;-66
2022/12/19 07:25:02;;;;;;;7.22;2.70;;;;;;;;;;5001614;28;92231;-66
2022/12/19 07:27:28;;;;;;;6.05;2.58;;;;;;;;;;5000072;28;94753;-66
2022/12/19 07:30:01;;;;;;;6.60;3.00;;;;;;;;;;5001668;28;94776;-65
2022/12/19 07:32:28;;;;;;;6.38;3.00;;;;;;;;;;5001389;28;92468;-66
2022/12/19 07:34:54;;;;;;;6.32;2.50;;;;;;;;;;5001524;28;92550;-66
2022/12/19 07:37:20;;;;;;;7.20;3.10;;;;;;;;;;5001420;28;92317;-67
2022/12/19 07:39:47;;;;;;;7.78;2.80;;;;;;;;;;5004508;28;92835;-67
2022/12/19 07:42:13;;;;;;;7.35;2.50;;;;;;;;;;5001451;28;93219;-66
2022/12/19 07:44:40;;;;;;;7.43;2.95;;;;;;;;;;5001065;28;95944;-67
2022/12/19 07:47:06;;;;;;;8.73;2.92;;;;;;;;;;5002020;28;92749;-67
2022/12/19 07:49:33;;;;;;;9.85;3.33;;;;;;;;;;5001224;28;92319;-67
2022/12/19 07:51:59;;;;;;;6.40;2.92;;;;;;;;;;4986176;28;95040;-67
2022/12/19 07:54:25;;;;;;;8.30;3.00;;;;;;;;;;5001163;28;92022;-66
2022/12/19 07:56:52;;;;;;;7.13;2.92;;;;;;;;;;5003614;28;92683;-66
2022/12/19 07:59:19;;;;;;;7.15;2.78;;;;;;;;;;5004060;28;93019;-66
2022/12/19 08:01:51;;;;;;;8.15;2.67;;;;;;;;;;5007537;28;92634;-66
2022/12/19 08:04:17;;;;;;;7.30;2.60;;;;;;;;;;5003731;28;93226;-67
2022/12/19 08:06:45;;;;;;;6.82;2.70;;;;;;;;;;5004001;28;92292;-66
2022/12/19 08:09:11;;;;;;;;;;;;;;;;;;5005029;28;92396;-67
2022/12/19 08:11:38;;;;;;;7.32;2.60;;;;;;;;;;5004417;28;122041;-66
2022/12/19 08:14:04;;;;;;;5.28;2.50;;;;;;;;;;5004562;28;92411;-66
2022/12/19 08:16:30;;;;;;;7.25;2.55;;;;;;;;;;5001606;28;94820;-66
2022/12/19 08:19:14;;;;;;;6.55;2.40;;;;;;;;;;5004315;28;92505;-67
2022/12/19 08:21:41;;;;;;;5.45;2.45;;;;;;;;;;4996898;28;92589;-66
2022/12/19 08:24:07;;;;;;;6.05;2.30;;;;;;;;;;5007166;28;92342;-66
2022/12/19 08:26:33;;;;;;;6.10;2.33;;;;;;;;;;5004571;28;92408;-65
2022/12/19 08:29:08;;;;;;;6.22;2.35;;;;;;;;;;5004214;28;93258;-66
2022/12/19 08:31:34;;;;;;;5.55;2.40;;;;;;;;;;5004037;28;92761;-66
2022/12/19 08:34:01;;;;;;;5.22;2.22;;;;;;;;;;5004579;28;91434;-66
2022/12/19 08:36:27;;;;;;;5.35;2.25;;;;;;;;;;5003814;28;92171;-66
2022/12/19 08:38:54;;;;;;;5.93;2.30;;;;;;;;;;5003552;28;92520;-66
2022/12/19 08:41:22;;;;;;;5.60;2.40;;;;;;;;;;5002033;28;94631;-66
2022/12/19 08:43:49;;;;;;;5.70;2.30;;;;;;;;;;5003423;28;94329;-67
2022/12/19 08:46:16;;;;;;;7.18;2.30;;;;;;;;;;5006272;28;92662;-67
2022/12/19 08:48:43;;;;;;;6.50;2.33;;;;;;;;;;5003736;28;92172;-66
2022/12/19 08:51:10;;;;;;;5.68;2.25;;;;;;;;;;5003324;28;92753;-66
2022/12/19 08:53:37;;;;;;;4.88;2.20;;;;;;;;;;5003972;28;92391;-67
2022/12/19 08:56:10;;;;;;;5.32;2.25;;;;;;;;;;5003399;28;92851;-66
2022/12/19 08:58:36;;;;;;;5.28;2.03;;;;;;;;;;5004064;28;91842;-66
2022/12/19 09:01:04;;;;;;;4.32;2.00;;;;;;;;;;5003606;28;92257;-65
2022/12/19 09:03:31;;;;;;;4.88;1.90;;;;;;;;;;5003252;28;92670;-66
2022/12/19 09:06:18;;;;;;;4.53;2.00;;;;;;;;;;4981131;28;95034;-66
2022/12/19 09:08:45;;;;;;;5.28;2.10;;;;;;;;;;5003393;28;92042;-66
2022/12/19 09:11:16;;;;;;;5.18;2.17;;;;;;;;;;5003267;28;93079;-66
2022/12/19 09:13:43;;;;;;;4.80;2.10;;;;;;;;;;5003472;28;92193;-66
2022/12/19 09:16:11;;;;;;;5.45;2.13;;;;;;;;;;4997420;28;92168;-66
2022/12/19 09:18:38;;;;;;;4.47;2.05;;;;;;;;;;5013858;28;94870;-66
2022/12/19 09:21:10;;;;;;;4.82;2.00;;;;;;;;;;5003275;28;92206;-66
2022/12/19 09:23:36;;;;;;;5.20;2.17;;;;;;;;;;5003810;28;91773;-66
2022/12/19 09:26:04;;;;;;;4.50;2.00;;;;;;;;;;5002850;28;92306;-67
2022/12/19 09:28:31;;;;;;;5.53;1.95;;;;;;;;;;5005399;28;92039;-66
2022/12/19 09:30:58;;;;;;;5.32;2.00;;;;;;;;;;4994935;28;95802;-67
2022/12/19 09:33:25;;;;;;;4.32;1.80;;;;;;;;;;5001180;28;92500;-67
2022/12/19 09:35:52;;;;;;;7.13;2.05;;;;;;;;;;5001212;28;93045;-66
2022/12/19 09:38:22;;;;;;;4.75;2.30;;;;;;;;;;5002259;28;92634;-66
2022/12/19 09:41:07;;;;;;;5.18;2.00;;;;;;;;;;5001364;28;92352;-66
2022/12/19 09:43:59;;;;;;;4.60;1.90;;;;;;;;;;5001440;28;93382;-66
2022/12/19 09:46:27;;;;;;;6.05;2.10;;;;;;;;;;5000361;28;92423;-66
2022/12/19 09:48:54;;;;;;;3.95;1.70;;;;;;;;;;5002382;28;91787;-66
2022/12/19 09:51:29;;;;;;;4.68;1.77;;;;;;;;;;5004830;28;92062;-67
2022/12/19 09:53:59;;;;;;;6.07;2.00;;;;;;;;;;5001874;28;92106;-67
2022/12/19 09:56:27;;;;;;;4.43;2.00;;;;;;;;;;4999909;28;95056;-67
2022/12/19 09:58:59;;;;;;;3.95;1.80;;;;;;;;;;5001687;28;92666;-67
2022/12/19 10:01:32;;;;;;;4.60;1.90;;;;;;;;;;5002290;28;92322;-67
2022/12/19 10:04:02;;;;;;;4.43;1.95;;;;;;;;;;5002049;28;92419;-67
2022/12/19 10:06:30;;;;;;;3.22;1.60;;;;;;;;;;5001173;28;92761;-68
2022/12/19 10:09:18;;;;;;;4.43;1.80;;;;;;;;;;5000162;28;92260;-67
2022/12/19 10:12:14;;;;;;;3.33;1.65;;;;;;;;;;5001801;28;92224;-67
2022/12/19 10:15:29;;;;;;;4.65;1.90;;;;;;;;;;5005383;28;91812;-67
2022/12/19 10:17:56;;;;;;;5.55;1.80;;;;;;;;;;4981835;28;92529;-66
2022/12/19 10:20:31;;;;;;;4.03;1.80;;;;;;;;;;5000360;28;92586;-67
2022/12/19 10:23:24;;;;;;;3.70;1.73;;;;;;;;;;4999928;28;94961;-66
2022/12/19 10:25:54;;;;;;;3.97;1.70;;;;;;;;;;5001433;28;94530;-66
2022/12/19 10:28:39;;;;;;;4.15;1.80;;;;;;;;;;5001758;28;93358;-66
2022/12/19 10:31:17;;;;;;;3.55;1.60;;;;;;;;;;5001705;28;92123;-66
2022/12/19 10:33:53;;;;;;;2.90;1.60;;;;;;;;;;5001487;28;93233;-67
2022/12/19 10:36:20;;;;;;;5.07;1.90;;;;;;;;;;5000767;28;92662;-67
2022/12/19 10:39:25;;;;;;;3.35;1.70;;;;;;;;;;5004613;28;92471;-66
2022/12/19 10:41:54;;;;;;;3.90;1.65;;;;;;;;;;4999098;28;91978;-66
2022/12/19 10:44:21;;;;;;;3.95;1.80;;;;;;;;;;5001105;28;92058;-66
2022/12/19 10:46:49;;;;;;;4.07;1.58;;;;;;;;;;5001199;28;92520;-66
2022/12/19 10:49:17;;;;;;;3.78;1.63;;;;;;;;;;4998918;28;95282;-66
2022/12/19 10:51:43;;;;;;;;;;;;;;;;;;5001636;28;92465;-67
2022/12/19 10:54:09;;;;;;;3.90;1.65;;;;;;;;;;5001674;28;118691;-67
2022/12/19 10:56:36;;;;;;;4.50;1.80;;;;;;;;;;4997950;28;92693;-67
2022/12/19 10:59:14;;;;;;;3.72;1.65;;;;;;;;;;5001069;28;92230;-66
2022/12/19 11:01:41;;;;;;;3.38;1.88;;;;;;;;;;5001844;28;92397;-66
2022/12/19 11:04:25;;;;;;;5.80;2.00;;;;;;;;;;5001222;28;92356;-66
2022/12/19 11:07:01;;;;;;;3.67;1.70;;;;;;;;;;5002141;28;92293;-65
2022/12/19 11:09:28;;;;;;;4.70;1.80;;;;;;;;;;4998917;28;93511;-66
2022/12/19 11:12:11;;;;;;;4.43;1.80;;;;;;;;;;4999420;28;92092;-66
2022/12/19 11:15:13;;;;;;;3.55;1.80;;;;;;;;;;4999212;28;94994;-66
2022/12/19 11:18:06;;;;;;;4.65;2.00;;;;;;;;;;5001128;28;92792;-66
2022/12/19 11:20:55;;;;;;;3.78;1.77;;;;;;;;;;5001271;28;92234;-66
2022/12/19 11:23:47;;;;;;;4.38;1.80;;;;;;;;;;5000004;28;92313;-66
2022/12/19 11:26:41;;;;;;;4.30;2.10;;;;;;;;;;5001075;28;92089;-66
2022/12/19 11:29:42;;;;;;;5.63;2.10;;;;;;;;;;5001182;28;92483;-66
2022/12/19 11:32:32;;;;;;;6.03;2.60;;;;;;;;;;5000738;28;93606;-66
2022/12/19 11:35:23;;;;;;;4.97;2.20;;;;;;;;;;5003121;28;91580;-66
2022/12/19 11:38:04;;;;;;;7.00;1.98;;;;;;;;;;5004149;28;92647;-67
2022/12/19 11:40:46;;;;;;;5.20;2.28;;;;;;;;;;5003950;28;93150;-66
2022/12/19 11:43:14;;;;;;;5.65;2.10;;;;;;;;;;5003034;28;94501;-66
2022/12/19 11:46:18;;;;;;;5.13;2.22;;;;;;;;;;5003565;28;94681;-65
2022/12/19 11:49:00;;;;;;;4.90;2.30;;;;;;;;;;5006907;28;92744;-66
2022/12/19 11:51:38;;;;;;;4.50;1.85;;;;;;;;;;5002348;28;92378;-66
2022/12/19 11:54:10;;;;;;;5.28;2.15;;;;;;;;;;5003636;28;92791;-66
2022/12/19 11:56:37;;;;;;;6.82;2.38;;;;;;;;;;5000377;28;93155;-64
2022/12/19 11:59:11;;;;;;;5.05;2.20;;;;;;;;;;4982771;28;93660;-64
2022/12/19 12:01:42;;;;;;;3.83;1.90;;;;;;;;;;5003459;28;92388;-65
2022/12/19 12:04:32;;;;;;;4.40;1.80;;;;;;;;;;5002370;28;92687;-65
2022/12/19 12:06:59;;;;;;;4.78;1.83;;;;;;;;;;4989273;28;93339;-65
2022/12/19 12:09:44;;;;;;;5.00;1.90;;;;;;;;;;4997584;28;94958;-64
2022/12/19 12:12:36;;;;;;;5.35;1.83;;;;;;;;;;5013366;28;92090;-64
2022/12/19 12:15:22;;;;;;;4.75;1.90;;;;;;;;;;5002792;28;92508;-65
2022/12/19 12:18:21;;;;;;;5.60;2.10;;;;;;;;;;4999642;28;92512;-66
2022/12/19 12:21:22;;;;;;;4.25;1.75;;;;;;;;;;5011057;28;94203;-66
2022/12/19 12:24:23;;;;;;;4.15;1.70;;;;;;;;;;5003503;28;93096;-66
2022/12/19 12:27:29;;;;;;;3.90;1.75;;;;;;;;;;5003773;28;92286;-67
2022/12/19 12:30:17;;;;;;;4.57;1.98;;;;;;;;;;5004469;28;92160;-66
2022/12/19 12:33:06;;;;;;;5.63;1.60;;;;;;;;;;5003861;28;92696;-66
2022/12/19 12:35:56;;;;;;;5.18;2.00;;;;;;;;;;5001656;28;92355;-66
2022/12/19 12:38:52;;;;;;;3.75;1.70;;;;;;;;;;5005021;28;94441;-67
2022/12/19 12:44:29;;;;;;;5.18;2.08;;;;;;;;;;5003442;28;92586;-66
2022/12/19 12:47:19;;;;;;;3.95;1.60;;;;;;;;;;4986059;28;92803;-67
2022/12/19 12:49:47;;;;;;;4.50;1.70;;;;;;;;;;4999809;28;92559;-66
2022/12/19 12:52:17;;;;;;;4.45;1.83;;;;;;;;;;5003519;28;92778;-67
2022/12/19 12:54:46;;;;;;;4.80;1.60;;;;;;;;;;5002235;28;93189;-67
2022/12/19 12:57:17;;;;;;;4.57;1.90;;;;;;;;;;5003977;28;91300;-65
2022/12/19 12:59:44;;;;;;;7.95;2.10;;;;;;;;;;5003040;28;93155;-66
2022/12/19 13:02:21;;;;;;;4.22;1.80;;;;;;;;;;5005861;28;92926;-65
2022/12/19 13:04:58;;;;;;;7.75;1.90;;;;;;;;;;5001326;28;94439;-65
2022/12/19 13:07:25;;;;;;;4.70;1.98;;;;;;;;;;5001873;28;92627;-65
2022/12/19 13:09:53;;;;;;;4.22;1.70;;;;;;;;;;5003136;28;92065;-65
2022/12/19 13:15:26;;;;;;;5.25;1.95;;;;;;;;;;5002766;28;92650;-65
2022/12/19 13:17:52;;;;;;;4.80;1.65;;;;;;;;;;5003395;28;92254;-65
2022/12/19 13:20:28;;;;;;;5.00;1.98;;;;;;;;;;5002712;28;93192;-66
2022/12/19 13:22:57;;;;;;;5.97;1.75;;;;;;;;;;5003528;28;92979;-65
2022/12/19 13:25:29;;;;;;;4.47;2.40;;;;;;;;;;5005837;28;92112;-65
2022/12/19 13:28:02;;;;;;;6.40;1.70;;;;;;;;;;5003122;28;92649;-65
2022/12/19 13:30:29;;;;;;;6.15;1.90;;;;;;;;;;4986394;28;94923;-64
2022/12/19 13:32:57;;;;;;;;;;;;;;;;;;5000222;28;95550;-64
2022/12/19 13:35:26;;;;;;;6.03;2.00;;;;;;;;;;5002934;28;121935;-65
2022/12/19 13:38:18;;;;;;;5.53;1.92;;;;;;;;;;5001426;28;92415;-64
2022/12/19 13:43:44;;;;;;;3.85;1.70;;;;;;;;;;4999937;28;92544;-65
2022/12/19 13:43:56;;;;;;;4.95;1.90;;;;;;;;;;5002543;28;92986;-64
2022/12/19 13:46:30;;;;;;;4.32;1.95;;;;;;;;;;5005167;28;92287;-62
2022/12/19 13:49:23;;;;;;;4.60;1.92;;;;;;;;;;5002615;28;91807;-62
2022/12/19 13:51:55;;;;;;;4.75;1.63;;;;;;;;;;5001475;28;92029;-62
2022/12/19 13:54:43;;;;;;;4.70;1.95;;;;;;;;;;5001824;28;92269;-63
2022/12/19 13:57:26;;;;;;;4.07;1.70;;;;;;;;;;4988428;28;95026;-62
2022/12/19 13:59:55;;;;;;;5.40;1.77;;;;;;;;;;5001552;28;92080;-63
2022/12/19 14:02:31;;;;;;;3.85;1.67;;;;;;;;;;5001439;28;92327;-61
2022/12/19 14:05:26;;;;;;;5.05;1.80;;;;;;;;;;5001302;28;92527;-62
2022/12/19 14:08:19;;;;;;;3.83;1.70;;;;;;;;;;5002157;28;92007;-62
2022/12/19 14:10:48;;;;;;;6.22;1.70;;;;;;;;;;5005043;28;93568;-65
2022/12/19 14:16:37;;;;;;;5.72;1.63;;;;;;;;;;5000797;28;92043;-62
2022/12/19 14:19:17;;;;;;;4.95;1.70;;;;;;;;;;4998927;28;92929;-64
2022/12/19 14:21:43;;;;;;;4.22;1.70;;;;;;;;;;5001999;28;92577;-64
2022/12/19 14:24:30;;;;;;;3.97;1.90;;;;;;;;;;4998128;28;95630;-64
2022/12/19 14:26:59;;;;;;;4.10;1.90;;;;;;;;;;5001825;28;92629;-63
2022/12/19 14:29:48;;;;;;;3.45;1.60;;;;;;;;;;5001345;28;92177;-63
2022/12/19 14:32:35;;;;;;;4.43;1.73;;;;;;;;;;5001758;28;93229;-63
2022/12/19 14:35:23;;;;;;;3.92;1.80;;;;;;;;;;5001507;28;92862;-63
2022/12/19 14:38:13;;;;;;;4.63;1.60;;;;;;;;;;5002169;28;92375;-63
2022/12/19 14:41:00;;;;;;;4.05;1.63;;;;;;;;;;4998904;28;92648;-63
2022/12/19 14:43:38;;;;;;;4.07;1.80;;;;;;;;;;5002510;28;91595;-62
2022/12/19 14:46:26;;;;;;;3.30;1.50;;;;;;;;;;4997279;28;92050;-62
2022/12/19 14:49:21;;;;;;;3.50;1.67;;;;;;;;;;5001345;28;92780;-63
2022/12/19 14:52:26;;;;;;;3.17;1.58;;;;;;;;;;5000288;28;94815;-64
2022/12/19 14:55:19;;;;;;;3.67;1.63;;;;;;;;;;5000683;28;95605;-61
2022/12/19 14:58:08;;;;;;;5.20;1.65;;;;;;;;;;5001715;28;92626;-62
2022/12/19 15:00:54;;;;;;;3.30;1.60;;;;;;;;;;5004705;28;92060;-63
2022/12/19 15:03:42;;;;;;;3.92;1.60;;;;;;;;;;5002038;28;92590;-62
2022/12/19 15:06:29;;;;;;;3.97;1.58;;;;;;;;;;5000022;28;92344;-63
2022/12/19 15:09:16;;;;;;;4.13;1.70;;;;;;;;;;4999663;28;92412;-63
2022/12/19 15:15:20;;;;;;;3.63;1.50;;;;;;;;;;4999526;28;92457;-62
2022/12/19 15:17:47;;;;;;;4.72;1.70;;;;;;;;;;5001605;28;92402;-63
2022/12/19 15:20:15;;;;;;;3.88;1.70;;;;;;;;;;4998933;28;95321;-63
2022/12/19 15:22:41;;;;;;;3.75;1.80;;;;;;;;;;4999664;28;92771;-63
2022/12/19 15:25:17;;;;;;;3.55;1.67;;;;;;;;;;5003789;28;93190;-63
2022/12/19 15:28:09;;;;;;;2.92;1.60;;;;;;;;;;5001500;28;92372;-63
2022/12/19 15:30:36;;;;;;;3.55;1.60;;;;;;;;;;5000508;28;93078;-62
2022/12/19 15:33:07;;;;;;;3.92;1.50;;;;;;;;;;5000967;28;93000;-63